sensor_id;sensor_type;location;lat;lon;timestamp;pressure;altitude;pressure_sealevel;temperature;humidity
36242;BME280;22283;42.748;12.732;2023-01-26T00:01:50;97859.75;;;3.10;100.00
36242;BME280;22283;42.748;12.732;2023-01-26T00:06:51;97862.34;;;3.10;100.00
36242;BME280;22283;42.748;12.732;2023-01-26T00:11:51;97851.56;;;2.99;100.00
36242;BME280;22283;42.748;12.732;2023-01-26T00:16:52;97845.75;;;2.92;100.00
36242;BME280;22283;42.748;12.732;2023-01-26T00:21:53;97837.88;;;2.93;100.00
36242;BME280;22283;42.748;12.732;2023-01-26T00:26:54;97824.00;;;2.91;100.00
36242;BME280;22283;42.748;12.732;2023-01-26T00:31:54;97827.84;;;2.65;100.00
36242;BME280;22283;42.748;12.732;2023-01-26T00:36:55;97822.31;;;2.53;100.00
36242;BME280;22283;42.748;12.732;2023-01-26T00:41:57;97813.59;;;2.54;100.00
36242;BME280;22283;42.748;12.732;2023-01-26T00:47:08;97818.94;;;2.51;100.00
36242;BME280;22283;42.748;12.732;2023-01-26T00:52:11;97805.88;;;2.51;100.00
36242;BME280;22283;42.748;12.732;2023-01-26T00:57:12;97801.84;;;2.43;100.00
36242;BME280;22283;42.748;12.732;2023-01-26T01:02:12;97794.03;;;2.43;100.00
36242;BME280;22283;42.748;12.732;2023-01-26T01:07:13;97788.56;;;2.29;100.00
36242;BME280;22283;42.748;12.732;2023-01-26T01:12:14;97779.53;;;2.17;100.00
36242;BME280;22283;42.748;12.732;2023-01-26T01:17:14;97793.78;;;2.10;100.00
36242;BME280;22283;42.748;12.732;2023-01-26T01:22:15;97782.31;;;1.94;100.00
36242;BME280;22283;42.748;12.732;2023-01-26T01:27:15;97785.72;;;1.96;100.00
36242;BME280;22283;42.748;12.732;2023-01-26T01:32:16;97790.22;;;1.92;100.00
36242;BME280;22283;42.748;12.732;2023-01-26T01:37:19;97781.88;;;1.84;100.00
36242;BME280;22283;42.748;12.732;2023-01-26T01:42:20;97776.66;;;1.84;100.00
36242;BME280;22283;42.748;12.732;2023-01-26T01:47:23;97783.72;;;1.82;100.00
36242;BME280;22283;42.748;12.732;2023-01-26T01:52:29;97783.72;;;1.82;100.00
36242;BME280;22283;42.748;12.732;2023-01-26T01:57:33;97778.69;;;1.78;100.00
36242;BME280;22283;42.748;12.732;2023-01-26T02:02:45;97776.78;;;1.81;100.00
36242;BME280;22283;42.748;12.732;2023-01-26T02:08:12;97763.88;;;1.78;100.00
36242;BME280;22283;42.748;12.732;2023-01-26T02:13:15;97765.22;;;1.68;100.00
36242;BME280;22283;42.748;12.732;2023-01-26T02:18:17;97761.81;;;1.66;100.00
36242;BME280;22283;42.748;12.732;2023-01-26T02:23:35;97749.34;;;1.72;100.00
36242;BME280;22283;42.748;12.732;2023-01-26T02:28:38;97739.84;;;1.71;100.00
36242;BME280;22283;42.748;12.732;2023-01-26T02:33:39;97734.50;;;1.75;100.00
36242;BME280;22283;42.748;12.732;2023-01-26T02:38:49;97734.88;;;1.65;100.00
36242;BME280;22283;42.748;12.732;2023-01-26T02:43:50;97718.09;;;1.52;100.00
36242;BME280;22283;42.748;12.732;2023-01-26T02:48:51;97704.84;;;1.57;100.00
36242;BME280;22283;42.748;12.732;2023-01-26T02:54:10;97699.50;;;1.60;100.00
36242;BME280;22283;42.748;12.732;2023-01-26T02:59:32;97689.75;;;1.44;100.00
36242;BME280;22283;42.748;12.732;2023-01-26T03:04:32;97677.03;;;1.37;100.00
36242;BME280;22283;42.748;12.732;2023-01-26T03:09:33;97676.53;;;1.29;100.00
36242;BME280;22283;42.748;12.732;2023-01-26T03:14:33;97651.81;;;1.37;100.00
36242;BME280;22283;42.748;12.732;2023-01-26T03:19:34;97652.94;;;1.32;100.00
36242;BME280;22283;42.748;12.732;2023-01-26T03:24:53;97653.47;;;1.40;100.00
36242;BME280;22283;42.748;12.732;2023-01-26T03:30:13;97633.81;;;1.52;100.00
36242;BME280;22283;42.748;12.732;2023-01-26T03:35:16;97631.59;;;1.63;100.00
36242;BME280;22283;42.748;12.732;2023-01-26T03:40:22;97636.34;;;2.10;100.00
36242;BME280;22283;42.748;12.732;2023-01-26T03:45:42;97627.44;;;2.86;100.00
36242;BME280;22283;42.748;12.732;2023-01-26T03:51:04;97613.53;;;4.01;98.72
36242;BME280;22283;42.748;12.732;2023-01-26T03:56:24;97593.84;;;4.26;95.31
36242;BME280;22283;42.748;12.732;2023-01-26T04:01:27;97589.41;;;4.12;96.09
36242;BME280;22283;42.748;12.732;2023-01-26T04:06:31;97582.81;;;3.89;98.41
36242;BME280;22283;42.748;12.732;2023-01-26T04:11:51;97576.63;;;3.58;100.00
36242;BME280;22283;42.748;12.732;2023-01-26T04:16:52;97569.63;;;3.59;99.34
36242;BME280;22283;42.748;12.732;2023-01-26T04:22:11;97559.94;;;3.28;100.00
36242;BME280;22283;42.748;12.732;2023-01-26T04:27:14;97559.22;;;3.41;100.00
36242;BME280;22283;42.748;12.732;2023-01-26T04:32:15;97536.13;;;3.50;100.00
36242;BME280;22283;42.748;12.732;2023-01-26T04:37:16;97550.59;;;3.39;99.89
36242;BME280;22283;42.748;12.732;2023-01-26T04:42:20;97554.31;;;3.02;100.00
36242;BME280;22283;42.748;12.732;2023-01-26T04:47:24;97540.06;;;3.25;100.00
36242;BME280;22283;42.748;12.732;2023-01-26T04:52:25;97538.84;;;3.15;100.00
36242;BME280;22283;42.748;12.732;2023-01-26T04:57:25;97550.88;;;3.02;100.00
36242;BME280;22283;42.748;12.732;2023-01-26T05:02:27;97543.78;;;3.04;100.00
36242;BME280;22283;42.748;12.732;2023-01-26T05:07:28;97544.28;;;2.77;100.00
36242;BME280;22283;42.748;12.732;2023-01-26T05:12:29;97535.06;;;2.53;100.00
36242;BME280;22283;42.748;12.732;2023-01-26T05:17:51;97537.88;;;2.13;100.00
36242;BME280;22283;42.748;12.732;2023-01-26T05:23:21;97536.72;;;2.02;100.00
36242;BME280;22283;42.748;12.732;2023-01-26T05:28:40;97543.16;;;1.94;100.00
36242;BME280;22283;42.748;12.732;2023-01-26T05:33:41;97548.53;;;1.72;100.00
36242;BME280;22283;42.748;12.732;2023-01-26T05:38:45;97543.19;;;1.57;100.00
36242;BME280;22283;42.748;12.732;2023-01-26T05:43:46;97547.72;;;1.53;100.00
36242;BME280;22283;42.748;12.732;2023-01-26T05:49:08;97538.50;;;1.27;100.00
36242;BME280;22283;42.748;12.732;2023-01-26T05:54:09;97533.03;;;1.13;100.00
36242;BME280;22283;42.748;12.732;2023-01-26T05:59:10;97545.09;;;1.34;100.00
36242;BME280;22283;42.748;12.732;2023-01-26T06:04:11;97547.56;;;1.37;100.00
36242;BME280;22283;42.748;12.732;2023-01-26T06:09:19;97543.78;;;1.44;100.00
36242;BME280;22283;42.748;12.732;2023-01-26T06:14:41;97534.44;;;1.58;100.00
36242;BME280;22283;42.748;12.732;2023-01-26T06:19:42;97539.25;;;1.67;100.00
36242;BME280;22283;42.748;12.732;2023-01-26T06:24:43;97537.28;;;1.72;100.00
36242;BME280;22283;42.748;12.732;2023-01-26T06:29:45;97544.44;;;1.86;100.00
36242;BME280;22283;42.748;12.732;2023-01-26T06:34:45;97536.34;;;1.73;100.00
36242;BME280;22283;42.748;12.732;2023-01-26T06:39:47;97526.13;;;1.87;100.00
36242;BME280;22283;42.748;12.732;2023-01-26T06:44:48;97528.59;;;2.08;100.00
36242;BME280;22283;42.748;12.732;2023-01-26T06:49:50;97528.00;;;2.20;100.00
36242;BME280;22283;42.748;12.732;2023-01-26T06:54:52;97512.19;;;2.40;100.00
36242;BME280;22283;42.748;12.732;2023-01-26T07:00:12;97517.72;;;2.52;100.00
36242;BME280;22283;42.748;12.732;2023-01-26T07:05:32;97503.28;;;2.62;100.00
36242;BME280;22283;42.748;12.732;2023-01-26T07:10:34;97516.63;;;2.73;100.00
36242;BME280;22283;42.748;12.732;2023-01-26T07:15:34;97506.75;;;2.95;100.00
36242;BME280;22283;42.748;12.732;2023-01-26T07:20:35;97506.09;;;3.08;100.00
36242;BME280;22283;42.748;12.732;2023-01-26T07:25:36;97516.88;;;3.35;100.00
36242;BME280;22283;42.748;12.732;2023-01-26T07:30:36;97520.16;;;3.86;100.00
36242;BME280;22283;42.748;12.732;2023-01-26T07:35:37;97497.53;;;4.61;89.62
36242;BME280;22283;42.748;12.732;2023-01-26T07:40:37;97510.97;;;5.28;82.06
36242;BME280;22283;42.748;12.732;2023-01-26T07:45:38;97503.53;;;5.34;82.77
36242;BME280;22283;42.748;12.732;2023-01-26T07:50:38;97502.81;;;5.32;83.66
36242;BME280;22283;42.748;12.732;2023-01-26T07:55:40;97510.28;;;5.38;83.18
36242;BME280;22283;42.748;12.732;2023-01-26T08:00:43;97518.66;;;5.16;90.43
36242;BME280;22283;42.748;12.732;2023-01-26T08:05:46;97504.03;;;5.12;89.73
36242;BME280;22283;42.748;12.732;2023-01-26T08:10:47;97517.97;;;4.99;92.09
36242;BME280;22283;42.748;12.732;2023-01-26T08:15:47;97515.56;;;4.96;92.62
36242;BME280;22283;42.748;12.732;2023-01-26T08:20:50;97511.69;;;5.01;94.93
36242;BME280;22283;42.748;12.732;2023-01-26T08:25:51;97509.84;;;5.03;95.54
36242;BME280;22283;42.748;12.732;2023-01-26T08:30:52;97510.78;;;5.16;92.55
36242;BME280;22283;42.748;12.732;2023-01-26T08:35:52;97521.72;;;5.09;95.35
36242;BME280;22283;42.748;12.732;2023-01-26T08:40:53;97517.88;;;5.14;95.81
36242;BME280;22283;42.748;12.732;2023-01-26T08:45:54;97529.97;;;5.31;95.80
36242;BME280;22283;42.748;12.732;2023-01-26T08:50:56;97527.63;;;5.41;90.74
36242;BME280;22283;42.748;12.732;2023-01-26T08:55:59;97528.47;;;5.56;87.43
36242;BME280;22283;42.748;12.732;2023-01-26T09:01:07;97531.81;;;5.72;87.30
36242;BME280;22283;42.748;12.732;2023-01-26T09:06:11;97540.19;;;5.91;88.92
36242;BME280;22283;42.748;12.732;2023-01-26T09:11:13;97530.63;;;6.05;87.86
36242;BME280;22283;42.748;12.732;2023-01-26T09:16:16;97528.44;;;6.11;79.03
36242;BME280;22283;42.748;12.732;2023-01-26T09:21:18;97529.63;;;6.20;78.30
36242;BME280;22283;42.748;12.732;2023-01-26T09:26:19;97540.66;;;6.25;79.11
36242;BME280;22283;42.748;12.732;2023-01-26T09:31:20;97540.75;;;6.38;81.13
36242;BME280;22283;42.748;12.732;2023-01-26T09:36:20;97538.75;;;6.42;80.88
36242;BME280;22283;42.748;12.732;2023-01-26T09:51:59;97520.94;;;6.72;72.55
36242;BME280;22283;42.748;12.732;2023-01-26T09:57:11;97527.06;;;6.85;74.06
36242;BME280;22283;42.748;12.732;2023-01-26T10:07:32;97509.47;;;7.11;70.03
36242;BME280;22283;42.748;12.732;2023-01-26T10:12:35;97495.69;;;7.33;65.07
36242;BME280;22283;42.748;12.732;2023-01-26T10:17:40;97489.66;;;7.57;63.72
36242;BME280;22283;42.748;12.732;2023-01-26T10:22:47;97485.00;;;7.60;63.48
36242;BME280;22283;42.748;12.732;2023-01-26T10:27:49;97489.16;;;7.76;62.01
36242;BME280;22283;42.748;12.732;2023-01-26T10:32:51;97462.88;;;7.87;59.78
36242;BME280;22283;42.748;12.732;2023-01-26T10:37:52;97453.44;;;7.84;60.75
36242;BME280;22283;42.748;12.732;2023-01-26T10:42:57;97452.28;;;7.76;60.50
36242;BME280;22283;42.748;12.732;2023-01-26T10:48:19;97452.63;;;7.71;60.94
36242;BME280;22283;42.748;12.732;2023-01-26T10:53:28;97442.34;;;7.68;61.50
36242;BME280;22283;42.748;12.732;2023-01-26T10:58:54;97434.44;;;7.68;60.89
36242;BME280;22283;42.748;12.732;2023-01-26T11:04:10;97434.63;;;7.41;66.10
36242;BME280;22283;42.748;12.732;2023-01-26T11:09:20;97432.97;;;7.27;66.86
36242;BME280;22283;42.748;12.732;2023-01-26T11:14:24;97428.19;;;7.32;65.63
36242;BME280;22283;42.748;12.732;2023-01-26T11:25:05;97409.75;;;7.45;63.14
36242;BME280;22283;42.748;12.732;2023-01-26T11:30:31;97401.53;;;7.50;62.94
36242;BME280;22283;42.748;12.732;2023-01-26T11:35:49;97381.56;;;7.34;62.25
36242;BME280;22283;42.748;12.732;2023-01-26T11:46:26;97358.84;;;7.57;61.71
36242;BME280;22283;42.748;12.732;2023-01-26T11:51:43;97361.03;;;7.63;59.99
36242;BME280;22283;42.748;12.732;2023-01-26T12:02:31;97347.81;;;7.76;60.48
36242;BME280;22283;42.748;12.732;2023-01-26T12:07:52;97344.22;;;7.77;60.33
36242;BME280;22283;42.748;12.732;2023-01-26T12:13:00;97340.59;;;7.67;60.66
36242;BME280;22283;42.748;12.732;2023-01-26T12:18:18;97341.41;;;7.68;60.85
36242;BME280;22283;42.748;12.732;2023-01-26T12:23:37;97331.78;;;7.55;65.52
36242;BME280;22283;42.748;12.732;2023-01-26T12:33:51;97331.81;;;6.95;69.90
36242;BME280;22283;42.748;12.732;2023-01-26T12:44:56;97323.06;;;6.45;74.30
36242;BME280;22283;42.748;12.732;2023-01-26T12:55:18;97320.13;;;6.36;74.82
36242;BME280;22283;42.748;12.732;2023-01-26T13:00:21;97316.16;;;6.18;75.61
36242;BME280;22283;42.748;12.732;2023-01-26T13:10:42;97314.69;;;6.14;76.90
36242;BME280;22283;42.748;12.732;2023-01-26T13:15:44;97291.75;;;6.16;78.13
36242;BME280;22283;42.748;12.732;2023-01-26T13:20:46;97303.66;;;6.34;77.33
36242;BME280;22283;42.748;12.732;2023-01-26T13:31:12;97290.06;;;6.40;75.36
36242;BME280;22283;42.748;12.732;2023-01-26T13:36:14;97290.72;;;6.31;76.64
36242;BME280;22283;42.748;12.732;2023-01-26T13:41:18;97292.00;;;6.26;76.36
36242;BME280;22283;42.748;12.732;2023-01-26T13:46:24;97291.34;;;6.22;75.45
36242;BME280;22283;42.748;12.732;2023-01-26T13:51:31;97278.94;;;6.11;75.73
36242;BME280;22283;42.748;12.732;2023-01-26T13:56:42;97286.94;;;6.10;76.14
36242;BME280;22283;42.748;12.732;2023-01-26T14:01:50;97290.72;;;6.19;75.83
36242;BME280;22283;42.748;12.732;2023-01-26T14:06:55;97283.03;;;6.28;75.59
36242;BME280;22283;42.748;12.732;2023-01-26T14:12:00;97278.28;;;6.33;75.69
36242;BME280;22283;42.748;12.732;2023-01-26T14:17:27;97290.81;;;6.43;74.78
36242;BME280;22283;42.748;12.732;2023-01-26T14:22:28;97277.22;;;6.49;74.60
36242;BME280;22283;42.748;12.732;2023-01-26T14:27:34;97289.84;;;6.56;74.77
36242;BME280;22283;42.748;12.732;2023-01-26T14:32:36;97278.94;;;6.37;75.98
36242;BME280;22283;42.748;12.732;2023-01-26T14:37:36;97281.88;;;6.32;76.05
36242;BME280;22283;42.748;12.732;2023-01-26T14:42:38;97288.19;;;6.04;77.91
36242;BME280;22283;42.748;12.732;2023-01-26T14:47:40;97291.44;;;5.95;78.88
36242;BME280;22283;42.748;12.732;2023-01-26T14:52:43;97282.75;;;5.95;79.46
36242;BME280;22283;42.748;12.732;2023-01-26T14:57:44;97282.91;;;5.91;80.11
36242;BME280;22283;42.748;12.732;2023-01-26T15:02:47;97293.25;;;5.95;79.40
36242;BME280;22283;42.748;12.732;2023-01-26T15:08:00;97282.53;;;6.10;74.96
36242;BME280;22283;42.748;12.732;2023-01-26T15:23:26;97287.34;;;6.04;78.31
36242;BME280;22283;42.748;12.732;2023-01-26T15:28:27;97295.75;;;5.96;75.32
36242;BME280;22283;42.748;12.732;2023-01-26T15:33:54;97287.25;;;5.93;71.46
36242;BME280;22283;42.748;12.732;2023-01-26T15:38:58;97288.56;;;5.85;70.01
36242;BME280;22283;42.748;12.732;2023-01-26T15:44:00;97287.31;;;5.78;69.76
36242;BME280;22283;42.748;12.732;2023-01-26T15:49:00;97300.69;;;5.61;70.12
36242;BME280;22283;42.748;12.732;2023-01-26T15:54:01;97302.47;;;5.48;70.48
36242;BME280;22283;42.748;12.732;2023-01-26T15:59:02;97294.84;;;5.30;71.65
36242;BME280;22283;42.748;12.732;2023-01-26T16:04:03;97301.19;;;5.13;72.59
36242;BME280;22283;42.748;12.732;2023-01-26T16:09:03;97292.47;;;5.13;71.60
36242;BME280;22283;42.748;12.732;2023-01-26T16:14:04;97295.63;;;5.18;70.49
36242;BME280;22283;42.748;12.732;2023-01-26T16:19:06;97298.13;;;5.07;72.17
36242;BME280;22283;42.748;12.732;2023-01-26T16:24:08;97293.75;;;4.52;83.36
36242;BME280;22283;42.748;12.732;2023-01-26T16:29:09;97306.94;;;4.22;85.84
36242;BME280;22283;42.748;12.732;2023-01-26T16:34:09;97295.41;;;3.95;87.35
36242;BME280;22283;42.748;12.732;2023-01-26T16:39:10;97295.94;;;3.72;88.16
36242;BME280;22283;42.748;12.732;2023-01-26T16:44:13;97290.72;;;3.42;92.29
36242;BME280;22283;42.748;12.732;2023-01-26T16:49:17;97307.72;;;3.19;94.32
36242;BME280;22283;42.748;12.732;2023-01-26T16:54:17;97300.75;;;3.04;97.41
36242;BME280;22283;42.748;12.732;2023-01-26T16:59:18;97300.91;;;3.01;96.87
36242;BME280;22283;42.748;12.732;2023-01-26T17:04:18;97308.16;;;2.95;97.12
36242;BME280;22283;42.748;12.732;2023-01-26T17:09:19;97304.81;;;2.62;99.38
36242;BME280;22283;42.748;12.732;2023-01-26T17:14:22;97311.53;;;2.50;100.00
36242;BME280;22283;42.748;12.732;2023-01-26T17:19:23;97309.59;;;2.54;100.00
36242;BME280;22283;42.748;12.732;2023-01-26T17:24:24;97306.50;;;2.63;98.61
36242;BME280;22283;42.748;12.732;2023-01-26T17:29:24;97300.28;;;2.81;95.83
36242;BME280;22283;42.748;12.732;2023-01-26T17:34:25;97304.97;;;2.75;96.98
36242;BME280;22283;42.748;12.732;2023-01-26T17:39:26;97320.47;;;3.09;92.08
36242;BME280;22283;42.748;12.732;2023-01-26T17:44:27;97320.28;;;2.96;94.71
36242;BME280;22283;42.748;12.732;2023-01-26T17:49:27;97314.47;;;2.60;98.23
36242;BME280;22283;42.748;12.732;2023-01-26T17:54:28;97315.16;;;2.63;96.30
36242;BME280;22283;42.748;12.732;2023-01-26T17:59:28;97311.56;;;2.66;96.30
36242;BME280;22283;42.748;12.732;2023-01-26T18:04:29;97303.50;;;2.53;95.76
36242;BME280;22283;42.748;12.732;2023-01-26T18:09:29;97298.38;;;2.36;99.24
36242;BME280;22283;42.748;12.732;2023-01-26T18:14:30;97301.00;;;2.52;96.95
36242;BME280;22283;42.748;12.732;2023-01-26T18:19:31;97303.28;;;2.58;96.32
36242;BME280;22283;42.748;12.732;2023-01-26T18:24:31;97318.72;;;2.94;91.86
36242;BME280;22283;42.748;12.732;2023-01-26T18:29:32;97314.88;;;3.15;88.85
36242;BME280;22283;42.748;12.732;2023-01-26T18:34:33;97315.00;;;2.82;91.01
36242;BME280;22283;42.748;12.732;2023-01-26T18:39:33;97317.94;;;3.08;88.55
36242;BME280;22283;42.748;12.732;2023-01-26T18:44:34;97304.19;;;3.50;82.19
36242;BME280;22283;42.748;12.732;2023-01-26T18:49:34;97297.69;;;3.57;80.80
36242;BME280;22283;42.748;12.732;2023-01-26T18:54:35;97311.94;;;3.22;84.84
36242;BME280;22283;42.748;12.732;2023-01-26T18:59:35;97316.09;;;3.10;85.84
36242;BME280;22283;42.748;12.732;2023-01-26T19:04:36;97317.94;;;2.76;90.58
36242;BME280;22283;42.748;12.732;2023-01-26T19:09:37;97312.56;;;2.79;95.96
36242;BME280;22283;42.748;12.732;2023-01-26T19:14:38;97313.72;;;2.42;98.97
36242;BME280;22283;42.748;12.732;2023-01-26T19:19:38;97320.00;;;2.22;100.00
36242;BME280;22283;42.748;12.732;2023-01-26T19:24:41;97321.53;;;2.09;100.00
36242;BME280;22283;42.748;12.732;2023-01-26T19:29:42;97332.56;;;1.81;100.00
36242;BME280;22283;42.748;12.732;2023-01-26T19:34:42;97330.44;;;2.05;100.00
36242;BME280;22283;42.748;12.732;2023-01-26T19:39:43;97327.44;;;2.12;100.00
36242;BME280;22283;42.748;12.732;2023-01-26T19:44:43;97324.13;;;2.26;100.00
36242;BME280;22283;42.748;12.732;2023-01-26T19:49:44;97330.16;;;2.11;100.00
36242;BME280;22283;42.748;12.732;2023-01-26T19:54:45;97327.69;;;2.08;100.00
36242;BME280;22283;42.748;12.732;2023-01-26T19:59:45;97318.97;;;1.91;100.00
36242;BME280;22283;42.748;12.732;2023-01-26T20:04:46;97326.00;;;1.89;100.00
36242;BME280;22283;42.748;12.732;2023-01-26T20:09:47;97314.06;;;1.68;100.00
36242;BME280;22283;42.748;12.732;2023-01-26T20:14:47;97326.00;;;1.20;100.00
36242;BME280;22283;42.748;12.732;2023-01-26T20:19:50;97323.81;;;0.93;100.00
36242;BME280;22283;42.748;12.732;2023-01-26T20:24:51;97323.53;;;0.81;100.00
36242;BME280;22283;42.748;12.732;2023-01-26T20:29:53;97326.63;;;0.70;100.00
36242;BME280;22283;42.748;12.732;2023-01-26T20:34:53;97310.31;;;0.66;100.00
36242;BME280;22283;42.748;12.732;2023-01-26T20:39:54;97319.88;;;0.47;100.00
36242;BME280;22283;42.748;12.732;2023-01-26T20:44:55;97318.97;;;0.29;100.00
36242;BME280;22283;42.748;12.732;2023-01-26T20:49:58;97314.31;;;0.17;100.00
36242;BME280;22283;42.748;12.732;2023-01-26T20:54:58;97325.09;;;0.08;100.00
36242;BME280;22283;42.748;12.732;2023-01-26T21:00:02;97318.50;;;0.01;100.00
36242;BME280;22283;42.748;12.732;2023-01-26T21:05:03;97319.72;;;-0.08;100.00
36242;BME280;22283;42.748;12.732;2023-01-26T21:10:05;97316.50;;;-0.13;100.00
36242;BME280;22283;42.748;12.732;2023-01-26T21:15:06;97320.78;;;-0.12;100.00
36242;BME280;22283;42.748;12.732;2023-01-26T21:20:07;97313.31;;;-0.20;100.00
36242;BME280;22283;42.748;12.732;2023-01-26T21:25:09;97301.41;;;-0.05;100.00
36242;BME280;22283;42.748;12.732;2023-01-26T21:30:11;97317.25;;;0.09;100.00
36242;BME280;22283;42.748;12.732;2023-01-26T21:35:12;97312.19;;;0.06;100.00
36242;BME280;22283;42.748;12.732;2023-01-26T21:40:15;97305.13;;;-0.11;100.00
36242;BME280;22283;42.748;12.732;2023-01-26T21:45:16;97304.75;;;-0.22;100.00
36242;BME280;22283;42.748;12.732;2023-01-26T21:50:35;97299.66;;;-0.25;100.00
36242;BME280;22283;42.748;12.732;2023-01-26T21:55:54;97302.69;;;-0.34;100.00
36242;BME280;22283;42.748;12.732;2023-01-26T22:01:08;97299.44;;;-0.39;100.00
36242;BME280;22283;42.748;12.732;2023-01-26T22:06:11;97289.09;;;-0.41;100.00
36242;BME280;22283;42.748;12.732;2023-01-26T22:11:12;97285.38;;;-0.56;100.00
36242;BME280;22283;42.748;12.732;2023-01-26T22:16:14;97275.97;;;-0.58;100.00
36242;BME280;22283;42.748;12.732;2023-01-26T22:21:15;97272.91;;;-0.68;100.00
36242;BME280;22283;42.748;12.732;2023-01-26T22:26:19;97276.81;;;-0.78;100.00
36242;BME280;22283;42.748;12.732;2023-01-26T22:31:22;97280.28;;;-1.00;100.00
36242;BME280;22283;42.748;12.732;2023-01-26T22:36:25;97271.84;;;-1.05;100.00
36242;BME280;22283;42.748;12.732;2023-01-26T22:41:26;97269.25;;;-0.84;100.00
36242;BME280;22283;42.748;12.732;2023-01-26T22:46:29;97271.97;;;-0.87;100.00
36242;BME280;22283;42.748;12.732;2023-01-26T22:51:31;97268.34;;;-0.83;100.00
36242;BME280;22283;42.748;12.732;2023-01-26T22:56:32;97269.72;;;-0.95;100.00
36242;BME280;22283;42.748;12.732;2023-01-26T23:01:33;97264.47;;;-0.93;100.00
36242;BME280;22283;42.748;12.732;2023-01-26T23:06:33;97264.69;;;-1.00;100.00
36242;BME280;22283;42.748;12.732;2023-01-26T23:11:34;97256.97;;;-1.01;100.00
36242;BME280;22283;42.748;12.732;2023-01-26T23:16:35;97258.72;;;-1.02;100.00
36242;BME280;22283;42.748;12.732;2023-01-26T23:21:35;97247.63;;;-1.05;100.00
36242;BME280;22283;42.748;12.732;2023-01-26T23:26:36;97254.16;;;-0.95;100.00
36242;BME280;22283;42.748;12.732;2023-01-26T23:31:36;97253.53;;;-1.02;100.00
36242;BME280;22283;42.748;12.732;2023-01-26T23:36:37;97242.50;;;-1.07;100.00
36242;BME280;22283;42.748;12.732;2023-01-26T23:41:38;97248.03;;;-0.94;100.00
36242;BME280;22283;42.748;12.732;2023-01-26T23:46:38;97241.50;;;-0.82;100.00
36242;BME280;22283;42.748;12.732;2023-01-26T23:51:39;97237.22;;;-0.63;100.00
36242;BME280;22283;42.748;12.732;2023-01-26T23:56:39;97245.13;;;-0.45;100.00
